General Aviation Weather

Text Reports

Enter one or more of the following location identifiers separated by a space:

Zip Code, Four-Character ICAO or Three-Character IATA airport codes.

METAR - Aviation Routine Weather Report
PHSF - Bradshaw AFB, Hawaii
Updated at 7:56 AM GMT on April 25, 2014 (9:56 PM HST):
METAR PHSF 250756Z AUTO 31001KT 10SM CLR 12/09 A3040 RMK AO2 SLP182 T01150089
TAF - Terminal Area Forecast
PHSF - Bradshaw AFB, Hawaii
Updated at 7:56 AM GMT on April 25, 2014 (9:56 PM HST):
No TAF is currently available for this location.
Decoded:
No decoded TAF is available.
PIREP - Pilot Weather Report
PHSF - Bradshaw AFB, Hawaii
Updated at 7:56 AM GMT on April 25, 2014 (9:56 PM HST):
No PIREP is currently available for this location.
AIRMET - Airmens Meteorological Information
PHSF - Bradshaw AFB, Hawaii
Updated at 7:56 AM GMT on April 25, 2014 (9:56 PM HST):
No AIRMET is currently available for this location.
SIGMET - Significant Meteorological Information
PHSF - Bradshaw AFB, Hawaii
Updated at 7:56 AM GMT on April 25, 2014 (9:56 PM HST):
No SIGMET is currently available for this location.
NOTAM - Notice to Airmen
PHSF - Bradshaw AFB, Hawaii
Updated at 7:56 AM GMT on April 25, 2014 (9:56 PM HST):
No NOTAM is currently available for this location.
Forecast Area
PHSF - Bradshaw AFB, Hawaii
Updated at 7:56 AM GMT on April 25, 2014 (9:56 PM HST):
No NOTAM is currently available for this location.
Aviation Weather Maps